sensor_id;sensor_type;location;lat;lon;timestamp;pressure;altitude;pressure_sealevel;temperature;humidity
60099;BME280;45976;49.400;8.682;2022-07-26T00:00:43;100054.66;;;26.12;45.19
60099;BME280;45976;49.400;8.682;2022-07-26T00:01:44;100056.38;;;25.98;45.18
60099;BME280;45976;49.400;8.682;2022-07-26T00:02:45;100056.31;;;26.08;45.25
60099;BME280;45976;49.400;8.682;2022-07-26T00:03:47;100061.53;;;26.33;44.75
60099;BME280;45976;49.400;8.682;2022-07-26T00:04:49;100054.81;;;26.26;44.88
60099;BME280;45976;49.400;8.682;2022-07-26T00:05:49;100059.09;;;25.98;45.34
60099;BME280;45976;49.400;8.682;2022-07-26T00:06:50;100051.03;;;25.88;45.49
60099;BME280;45976;49.400;8.682;2022-07-26T00:07:51;100049.53;;;25.67;45.92
60099;BME280;45976;49.400;8.682;2022-07-26T00:09:09;100047.94;;;25.66;46.16
60099;BME280;45976;49.400;8.682;2022-07-26T00:10:10;100051.41;;;25.23;46.87
60099;BME280;45976;49.400;8.682;2022-07-26T00:11:11;100050.03;;;25.74;46.39
60099;BME280;45976;49.400;8.682;2022-07-26T00:12:11;100043.78;;;25.73;46.30
60099;BME280;45976;49.400;8.682;2022-07-26T00:13:12;100050.59;;;25.71;45.90
60099;BME280;45976;49.400;8.682;2022-07-26T00:14:13;100053.91;;;25.63;46.46
60099;BME280;45976;49.400;8.682;2022-07-26T00:15:15;100063.72;;;25.59;46.66
60099;BME280;45976;49.400;8.682;2022-07-26T00:16:16;100062.97;;;25.87;46.27
60099;BME280;45976;49.400;8.682;2022-07-26T00:17:16;100063.97;;;26.01;45.98
60099;BME280;45976;49.400;8.682;2022-07-26T00:18:18;100061.84;;;25.93;45.92
60099;BME280;45976;49.400;8.682;2022-07-26T00:19:18;100068.44;;;25.82;46.48
60099;BME280;45976;49.400;8.682;2022-07-26T00:20:19;100073.31;;;25.85;45.85
60099;BME280;45976;49.400;8.682;2022-07-26T00:21:20;100068.59;;;25.62;46.50
60099;BME280;45976;49.400;8.682;2022-07-26T00:22:21;100068.56;;;25.67;46.10
60099;BME280;45976;49.400;8.682;2022-07-26T00:23:33;100073.81;;;25.92;46.49
60099;BME280;45976;49.400;8.682;2022-07-26T00:24:34;100077.16;;;25.84;45.78
60099;BME280;45976;49.400;8.682;2022-07-26T00:25:35;100068.97;;;25.45;46.92
60099;BME280;45976;49.400;8.682;2022-07-26T00:26:36;100075.50;;;25.83;46.16
60099;BME280;45976;49.400;8.682;2022-07-26T00:27:37;100067.81;;;25.56;46.54
60099;BME280;45976;49.400;8.682;2022-07-26T00:28:38;100079.19;;;25.58;46.67
60099;BME280;45976;49.400;8.682;2022-07-26T00:29:40;100081.47;;;25.36;46.97
60099;BME280;45976;49.400;8.682;2022-07-26T00:30:41;100081.03;;;25.73;46.46
60099;BME280;45976;49.400;8.682;2022-07-26T00:31:42;100079.56;;;25.86;46.59
60099;BME280;45976;49.400;8.682;2022-07-26T00:32:43;100086.03;;;25.51;46.43
60099;BME280;45976;49.400;8.682;2022-07-26T00:33:44;100080.63;;;25.41;46.34
60099;BME280;45976;49.400;8.682;2022-07-26T00:34:44;100086.13;;;25.26;47.17
60099;BME280;45976;49.400;8.682;2022-07-26T00:35:45;100080.94;;;25.29;47.21
60099;BME280;45976;49.400;8.682;2022-07-26T00:36:46;100081.63;;;25.60;46.61
60099;BME280;45976;49.400;8.682;2022-07-26T00:37:47;100078.88;;;25.65;46.26
60099;BME280;45976;49.400;8.682;2022-07-26T00:38:48;100076.59;;;25.82;46.44
60099;BME280;45976;49.400;8.682;2022-07-26T00:39:48;100085.31;;;25.79;46.15
60099;BME280;45976;49.400;8.682;2022-07-26T00:40:49;100073.63;;;25.79;46.23
60099;BME280;45976;49.400;8.682;2022-07-26T00:41:50;100077.31;;;25.54;46.26
60099;BME280;45976;49.400;8.682;2022-07-26T00:42:51;100078.97;;;25.89;46.59
60099;BME280;45976;49.400;8.682;2022-07-26T00:43:57;100087.28;;;26.07;46.31
60099;BME280;45976;49.400;8.682;2022-07-26T00:45:00;100078.09;;;25.98;46.17
60099;BME280;45976;49.400;8.682;2022-07-26T00:46:01;100083.47;;;26.08;46.35
60099;BME280;45976;49.400;8.682;2022-07-26T00:47:01;100090.81;;;26.13;46.04
60099;BME280;45976;49.400;8.682;2022-07-26T00:48:02;100082.84;;;25.83;46.83
60099;BME280;45976;49.400;8.682;2022-07-26T00:49:03;100085.84;;;25.81;45.99
60099;BME280;45976;49.400;8.682;2022-07-26T00:50:06;100097.22;;;25.83;45.95
60099;BME280;45976;49.400;8.682;2022-07-26T00:51:08;100099.44;;;25.76;46.49
60099;BME280;45976;49.400;8.682;2022-07-26T00:52:09;100091.31;;;25.71;46.00
60099;BME280;45976;49.400;8.682;2022-07-26T00:53:10;100094.00;;;25.81;46.93
60099;BME280;45976;49.400;8.682;2022-07-26T00:54:11;100095.03;;;25.85;46.57
60099;BME280;45976;49.400;8.682;2022-07-26T00:55:12;100094.97;;;25.51;46.88
60099;BME280;45976;49.400;8.682;2022-07-26T00:56:15;100100.97;;;25.92;46.59
60099;BME280;45976;49.400;8.682;2022-07-26T00:57:16;100101.41;;;26.09;46.53
60099;BME280;45976;49.400;8.682;2022-07-26T00:58:18;100097.03;;;25.69;45.93
60099;BME280;45976;49.400;8.682;2022-07-26T00:59:19;100106.72;;;25.86;46.50
60099;BME280;45976;49.400;8.682;2022-07-26T01:00:22;100097.88;;;25.70;47.04
60099;BME280;45976;49.400;8.682;2022-07-26T01:01:26;100101.81;;;25.49;46.84
60099;BME280;45976;49.400;8.682;2022-07-26T01:02:27;100102.19;;;25.71;47.15
60099;BME280;45976;49.400;8.682;2022-07-26T01:03:28;100106.84;;;26.09;46.49
60099;BME280;45976;49.400;8.682;2022-07-26T01:04:28;100107.09;;;26.13;46.49
60099;BME280;45976;49.400;8.682;2022-07-26T01:05:29;100100.09;;;26.02;46.38
60099;BME280;45976;49.400;8.682;2022-07-26T01:06:31;100110.09;;;26.06;46.11
60099;BME280;45976;49.400;8.682;2022-07-26T01:07:32;100111.38;;;25.80;46.37
60099;BME280;45976;49.400;8.682;2022-07-26T01:08:33;100102.03;;;25.96;46.41
60099;BME280;45976;49.400;8.682;2022-07-26T01:09:34;100109.13;;;25.92;46.22
60099;BME280;45976;49.400;8.682;2022-07-26T01:10:35;100104.75;;;25.52;47.47
60099;BME280;45976;49.400;8.682;2022-07-26T01:11:35;100108.56;;;25.95;46.60
60099;BME280;45976;49.400;8.682;2022-07-26T01:12:41;100102.66;;;25.83;46.68
60099;BME280;45976;49.400;8.682;2022-07-26T01:13:46;100106.41;;;25.92;46.07
60099;BME280;45976;49.400;8.682;2022-07-26T01:14:47;100113.00;;;25.81;46.05
60099;BME280;45976;49.400;8.682;2022-07-26T01:15:48;100115.91;;;25.95;46.55
60099;BME280;45976;49.400;8.682;2022-07-26T01:16:49;100117.28;;;25.92;46.62
60099;BME280;45976;49.400;8.682;2022-07-26T01:17:50;100114.22;;;26.04;46.30
60099;BME280;45976;49.400;8.682;2022-07-26T01:18:51;100113.63;;;26.07;46.12
60099;BME280;45976;49.400;8.682;2022-07-26T01:19:51;100116.56;;;26.15;46.06
60099;BME280;45976;49.400;8.682;2022-07-26T01:20:53;100112.38;;;25.94;46.33
60099;BME280;45976;49.400;8.682;2022-07-26T01:21:53;100106.31;;;26.02;46.33
60099;BME280;45976;49.400;8.682;2022-07-26T01:22:54;100116.06;;;26.08;46.02
60099;BME280;45976;49.400;8.682;2022-07-26T01:23:55;100107.25;;;25.34;46.71
60099;BME280;45976;49.400;8.682;2022-07-26T01:24:56;100109.47;;;25.27;47.22
60099;BME280;45976;49.400;8.682;2022-07-26T01:25:56;100108.50;;;25.66;46.58
60099;BME280;45976;49.400;8.682;2022-07-26T01:26:57;100107.44;;;26.01;46.17
60099;BME280;45976;49.400;8.682;2022-07-26T01:27:57;100112.34;;;25.99;46.18
60099;BME280;45976;49.400;8.682;2022-07-26T01:28:59;100108.19;;;25.73;46.58
60099;BME280;45976;49.400;8.682;2022-07-26T01:29:59;100109.66;;;25.94;46.02
60099;BME280;45976;49.400;8.682;2022-07-26T01:31:00;100114.03;;;25.90;46.29
60099;BME280;45976;49.400;8.682;2022-07-26T01:32:00;100123.66;;;26.06;46.08
60099;BME280;45976;49.400;8.682;2022-07-26T01:33:03;100114.84;;;25.37;47.22
60099;BME280;45976;49.400;8.682;2022-07-26T01:34:03;100114.78;;;25.57;45.90
60099;BME280;45976;49.400;8.682;2022-07-26T01:35:04;100118.22;;;25.09;47.46
60099;BME280;45976;49.400;8.682;2022-07-26T01:36:07;100118.03;;;25.59;45.95
60099;BME280;45976;49.400;8.682;2022-07-26T01:37:08;100116.97;;;25.55;46.07
60099;BME280;45976;49.400;8.682;2022-07-26T01:38:09;100122.81;;;25.77;46.30
60099;BME280;45976;49.400;8.682;2022-07-26T01:39:10;100116.75;;;25.90;46.15
60099;BME280;45976;49.400;8.682;2022-07-26T01:40:11;100117.63;;;25.27;47.51
60099;BME280;45976;49.400;8.682;2022-07-26T01:41:12;100124.47;;;25.04;47.15
60099;BME280;45976;49.400;8.682;2022-07-26T01:42:12;100114.91;;;25.27;47.01
60099;BME280;45976;49.400;8.682;2022-07-26T01:43:13;100123.81;;;25.32;47.15
60099;BME280;45976;49.400;8.682;2022-07-26T01:44:14;100118.63;;;25.41;47.16
60099;BME280;45976;49.400;8.682;2022-07-26T01:45:14;100119.31;;;25.08;47.33
60099;BME280;45976;49.400;8.682;2022-07-26T01:46:15;100111.09;;;25.23;47.65
60099;BME280;45976;49.400;8.682;2022-07-26T01:47:15;100117.09;;;25.15;47.71
60099;BME280;45976;49.400;8.682;2022-07-26T01:48:17;100115.31;;;25.54;46.75
60099;BME280;45976;49.400;8.682;2022-07-26T01:49:17;100114.81;;;25.47;46.58
60099;BME280;45976;49.400;8.682;2022-07-26T01:50:18;100114.78;;;25.57;46.79
60099;BME280;45976;49.400;8.682;2022-07-26T01:51:19;100110.91;;;25.04;47.30
60099;BME280;45976;49.400;8.682;2022-07-26T01:52:19;100110.91;;;25.04;47.57
60099;BME280;45976;49.400;8.682;2022-07-26T01:53:20;100105.50;;;25.63;46.83
60099;BME280;45976;49.400;8.682;2022-07-26T01:54:20;100104.44;;;25.59;46.44
60099;BME280;45976;49.400;8.682;2022-07-26T01:55:21;100118.63;;;25.36;46.95
60099;BME280;45976;49.400;8.682;2022-07-26T01:56:22;100117.28;;;25.38;47.15
60099;BME280;45976;49.400;8.682;2022-07-26T01:57:22;100111.78;;;25.58;46.78
60099;BME280;45976;49.400;8.682;2022-07-26T01:58:23;100120.81;;;25.44;46.56
60099;BME280;45976;49.400;8.682;2022-07-26T01:59:23;100119.28;;;25.13;47.45
60099;BME280;45976;49.400;8.682;2022-07-26T02:00:24;100118.69;;;25.21;48.00
60099;BME280;45976;49.400;8.682;2022-07-26T02:01:25;100125.66;;;25.47;46.80
60099;BME280;45976;49.400;8.682;2022-07-26T02:02:25;100121.47;;;25.11;47.69
60099;BME280;45976;49.400;8.682;2022-07-26T02:03:26;100123.00;;;25.32;47.08
60099;BME280;45976;49.400;8.682;2022-07-26T02:04:27;100125.31;;;24.94;47.88
60099;BME280;45976;49.400;8.682;2022-07-26T02:05:46;100125.63;;;24.48;49.01
60099;BME280;45976;49.400;8.682;2022-07-26T02:06:46;100126.13;;;24.95;48.71
60099;BME280;45976;49.400;8.682;2022-07-26T02:07:47;100130.06;;;25.33;47.69
60099;BME280;45976;49.400;8.682;2022-07-26T02:08:47;100129.44;;;25.56;47.39
60099;BME280;45976;49.400;8.682;2022-07-26T02:09:48;100129.50;;;25.46;46.83
60099;BME280;45976;49.400;8.682;2022-07-26T02:10:50;100130.25;;;24.67;48.75
60099;BME280;45976;49.400;8.682;2022-07-26T02:12:01;100130.25;;;24.37;49.58
60099;BME280;45976;49.400;8.682;2022-07-26T02:13:02;100129.16;;;24.48;49.75
60099;BME280;45976;49.400;8.682;2022-07-26T02:14:02;100134.03;;;24.71;49.03
60099;BME280;45976;49.400;8.682;2022-07-26T02:15:04;100129.69;;;24.65;48.95
60099;BME280;45976;49.400;8.682;2022-07-26T02:16:10;100131.25;;;24.96;48.92
60099;BME280;45976;49.400;8.682;2022-07-26T02:17:13;100130.38;;;25.16;48.70
60099;BME280;45976;49.400;8.682;2022-07-26T02:18:14;100134.50;;;25.14;48.37
60099;BME280;45976;49.400;8.682;2022-07-26T02:19:15;100136.09;;;25.15;48.48
60099;BME280;45976;49.400;8.682;2022-07-26T02:20:16;100133.06;;;25.31;48.12
60099;BME280;45976;49.400;8.682;2022-07-26T02:21:16;100137.09;;;25.34;47.95
60099;BME280;45976;49.400;8.682;2022-07-26T02:22:17;100137.16;;;25.24;48.30
60099;BME280;45976;49.400;8.682;2022-07-26T02:23:21;100129.78;;;25.34;47.91
60099;BME280;45976;49.400;8.682;2022-07-26T02:24:23;100130.75;;;24.89;48.39
60099;BME280;45976;49.400;8.682;2022-07-26T02:25:28;100137.81;;;24.65;49.37
60099;BME280;45976;49.400;8.682;2022-07-26T02:26:29;100134.22;;;25.15;48.85
60099;BME280;45976;49.400;8.682;2022-07-26T02:27:29;100131.78;;;25.14;48.71
60099;BME280;45976;49.400;8.682;2022-07-26T02:28:30;100137.81;;;24.50;49.31
60099;BME280;45976;49.400;8.682;2022-07-26T02:29:31;100133.22;;;24.51;50.21
60099;BME280;45976;49.400;8.682;2022-07-26T02:30:32;100131.59;;;24.40;50.02
60099;BME280;45976;49.400;8.682;2022-07-26T02:31:33;100134.31;;;24.09;50.55
60099;BME280;45976;49.400;8.682;2022-07-26T02:32:33;100133.47;;;24.04;51.04
60099;BME280;45976;49.400;8.682;2022-07-26T02:33:34;100139.94;;;23.73;51.39
60099;BME280;45976;49.400;8.682;2022-07-26T02:34:34;100127.44;;;23.62;51.67
60099;BME280;45976;49.400;8.682;2022-07-26T02:35:35;100137.78;;;23.95;51.03
60099;BME280;45976;49.400;8.682;2022-07-26T02:36:36;100141.56;;;24.04;50.46
60099;BME280;45976;49.400;8.682;2022-07-26T02:37:36;100138.84;;;23.79;51.18
60099;BME280;45976;49.400;8.682;2022-07-26T02:38:39;100139.44;;;24.01;51.28
60099;BME280;45976;49.400;8.682;2022-07-26T02:39:40;100138.34;;;23.97;50.63
60099;BME280;45976;49.400;8.682;2022-07-26T02:40:40;100139.38;;;23.76;51.51
60099;BME280;45976;49.400;8.682;2022-07-26T02:41:42;100142.63;;;23.73;51.42
60099;BME280;45976;49.400;8.682;2022-07-26T02:42:42;100144.75;;;23.71;51.52
60099;BME280;45976;49.400;8.682;2022-07-26T02:43:43;100135.56;;;23.72;51.65
60099;BME280;45976;49.400;8.682;2022-07-26T02:44:44;100141.50;;;23.58;51.76
60099;BME280;45976;49.400;8.682;2022-07-26T02:45:44;100147.53;;;23.96;51.08
60099;BME280;45976;49.400;8.682;2022-07-26T02:46:45;100146.44;;;23.92;51.30
60099;BME280;45976;49.400;8.682;2022-07-26T02:47:47;100143.72;;;23.77;51.62
60099;BME280;45976;49.400;8.682;2022-07-26T02:48:49;100146.16;;;23.78;51.67
60099;BME280;45976;49.400;8.682;2022-07-26T02:49:50;100154.56;;;23.87;51.38
60099;BME280;45976;49.400;8.682;2022-07-26T02:50:51;100144.25;;;23.74;51.63
60099;BME280;45976;49.400;8.682;2022-07-26T02:51:51;100142.41;;;23.17;53.29
60099;BME280;45976;49.400;8.682;2022-07-26T02:52:52;100142.84;;;23.66;52.03
60099;BME280;45976;49.400;8.682;2022-07-26T02:53:53;100152.88;;;23.66;52.13
60099;BME280;45976;49.400;8.682;2022-07-26T02:54:54;100154.28;;;23.83;52.17
60099;BME280;45976;49.400;8.682;2022-07-26T02:55:54;100151.03;;;23.81;51.46
60099;BME280;45976;49.400;8.682;2022-07-26T02:56:55;100151.22;;;23.54;52.35
60099;BME280;45976;49.400;8.682;2022-07-26T02:57:56;100148.78;;;23.58;52.16
60099;BME280;45976;49.400;8.682;2022-07-26T02:58:57;100144.75;;;23.61;52.24
60099;BME280;45976;49.400;8.682;2022-07-26T02:59:57;100151.22;;;23.54;52.53
60099;BME280;45976;49.400;8.682;2022-07-26T03:00:58;100146.34;;;23.51;52.40
60099;BME280;45976;49.400;8.682;2022-07-26T03:01:58;100145.03;;;23.07;53.45
60099;BME280;45976;49.400;8.682;2022-07-26T03:02:59;100145.78;;;22.93;54.01
60099;BME280;45976;49.400;8.682;2022-07-26T03:04:01;100146.72;;;23.18;53.97
60099;BME280;45976;49.400;8.682;2022-07-26T03:05:03;100146.00;;;23.38;53.24
60099;BME280;45976;49.400;8.682;2022-07-26T03:06:05;100152.75;;;23.35;53.08
60099;BME280;45976;49.400;8.682;2022-07-26T03:07:05;100146.16;;;23.16;53.48
60099;BME280;45976;49.400;8.682;2022-07-26T03:08:06;100147.50;;;23.76;52.54
60099;BME280;45976;49.400;8.682;2022-07-26T03:09:06;100148.50;;;23.49;52.77
60099;BME280;45976;49.400;8.682;2022-07-26T03:10:07;100148.94;;;23.26;53.53
60099;BME280;45976;49.400;8.682;2022-07-26T03:11:08;100145.97;;;22.81;54.50
60099;BME280;45976;49.400;8.682;2022-07-26T03:12:09;100149.81;;;22.90;54.55
60099;BME280;45976;49.400;8.682;2022-07-26T03:13:10;100133.41;;;23.64;53.09
60099;BME280;45976;49.400;8.682;2022-07-26T03:14:10;100136.44;;;23.15;53.56
60099;BME280;45976;49.400;8.682;2022-07-26T03:15:11;100151.97;;;22.88;54.44
60099;BME280;45976;49.400;8.682;2022-07-26T03:16:12;100142.81;;;22.94;54.29
60099;BME280;45976;49.400;8.682;2022-07-26T03:17:12;100144.28;;;23.17;53.43
60099;BME280;45976;49.400;8.682;2022-07-26T03:18:13;100134.78;;;23.14;53.51
60099;BME280;45976;49.400;8.682;2022-07-26T03:19:13;100134.09;;;22.87;54.48
60099;BME280;45976;49.400;8.682;2022-07-26T03:20:14;100138.22;;;22.95;54.44
60099;BME280;45976;49.400;8.682;2022-07-26T03:21:16;100129.88;;;23.01;54.25
60099;BME280;45976;49.400;8.682;2022-07-26T03:22:16;100136.84;;;22.92;54.75
60099;BME280;45976;49.400;8.682;2022-07-26T03:23:17;100137.28;;;23.26;53.72
60099;BME280;45976;49.400;8.682;2022-07-26T03:24:18;100138.53;;;23.03;54.54
60099;BME280;45976;49.400;8.682;2022-07-26T03:25:18;100140.69;;;23.01;54.17
60099;BME280;45976;49.400;8.682;2022-07-26T03:26:19;100139.63;;;23.07;53.76
60099;BME280;45976;49.400;8.682;2022-07-26T03:27:20;100135.81;;;23.03;54.25
60099;BME280;45976;49.400;8.682;2022-07-26T03:28:20;100140.59;;;22.86;54.59
60099;BME280;45976;49.400;8.682;2022-07-26T03:29:21;100145.38;;;22.69;55.26
60099;BME280;45976;49.400;8.682;2022-07-26T03:30:22;100143.41;;;23.06;54.28
60099;BME280;45976;49.400;8.682;2022-07-26T03:31:23;100144.00;;;22.71;54.92
60099;BME280;45976;49.400;8.682;2022-07-26T03:32:24;100148.28;;;23.09;53.93
60099;BME280;45976;49.400;8.682;2022-07-26T03:33:27;100146.66;;;22.61;55.32
60099;BME280;45976;49.400;8.682;2022-07-26T03:34:28;100146.59;;;22.98;54.99
60099;BME280;45976;49.400;8.682;2022-07-26T03:35:29;100146.72;;;23.18;53.66
60099;BME280;45976;49.400;8.682;2022-07-26T03:36:29;100147.94;;;23.47;53.06
60099;BME280;45976;49.400;8.682;2022-07-26T03:37:30;100154.97;;;23.43;53.25
60099;BME280;45976;49.400;8.682;2022-07-26T03:38:31;100150.06;;;22.52;55.25
60099;BME280;45976;49.400;8.682;2022-07-26T03:39:32;100141.25;;;23.08;54.17
60099;BME280;45976;49.400;8.682;2022-07-26T03:40:32;100149.09;;;23.67;53.36
60099;BME280;45976;49.400;8.682;2022-07-26T03:41:33;100145.88;;;23.13;53.62
60099;BME280;45976;49.400;8.682;2022-07-26T03:42:35;100154.47;;;23.51;52.95
60099;BME280;45976;49.400;8.682;2022-07-26T03:43:35;100148.06;;;23.83;52.51
60099;BME280;45976;49.400;8.682;2022-07-26T03:44:36;100146.84;;;22.92;54.10
60099;BME280;45976;49.400;8.682;2022-07-26T03:45:37;100147.19;;;23.05;54.62
60099;BME280;45976;49.400;8.682;2022-07-26T03:46:37;100156.66;;;23.54;53.34
60099;BME280;45976;49.400;8.682;2022-07-26T03:47:38;100150.19;;;23.14;53.38
60099;BME280;45976;49.400;8.682;2022-07-26T03:48:39;100155.03;;;23.02;54.04
60099;BME280;45976;49.400;8.682;2022-07-26T03:49:39;100145.75;;;23.34;53.96
60099;BME280;45976;49.400;8.682;2022-07-26T03:50:40;100150.50;;;23.17;53.61
60099;BME280;45976;49.400;8.682;2022-07-26T03:51:41;100156.56;;;23.34;54.03
60099;BME280;45976;49.400;8.682;2022-07-26T03:52:42;100153.19;;;23.12;53.85
60099;BME280;45976;49.400;8.682;2022-07-26T03:53:43;100148.75;;;22.91;54.62
60099;BME280;45976;49.400;8.682;2022-07-26T03:54:43;100149.09;;;23.67;52.23
60099;BME280;45976;49.400;8.682;2022-07-26T03:55:44;100153.06;;;22.92;54.36
60099;BME280;45976;49.400;8.682;2022-07-26T03:57:03;100158.56;;;22.65;54.95
60099;BME280;45976;49.400;8.682;2022-07-26T03:58:04;100151.69;;;22.53;55.40
60099;BME280;45976;49.400;8.682;2022-07-26T03:59:06;100153.47;;;22.69;55.53
60099;BME280;45976;49.400;8.682;2022-07-26T04:00:08;100154.25;;;22.69;54.90
60099;BME280;45976;49.400;8.682;2022-07-26T04:01:09;100156.13;;;22.64;55.44
60099;BME280;45976;49.400;8.682;2022-07-26T04:02:10;100151.31;;;22.71;55.07
60099;BME280;45976;49.400;8.682;2022-07-26T04:03:11;100148.91;;;22.43;55.61
60099;BME280;45976;49.400;8.682;2022-07-26T04:04:13;100148.69;;;22.49;55.53
60099;BME280;45976;49.400;8.682;2022-07-26T04:05:17;100147.28;;;22.42;56.68
60099;BME280;45976;49.400;8.682;2022-07-26T04:06:17;100151.59;;;22.43;55.72
60099;BME280;45976;49.400;8.682;2022-07-26T04:07:18;100148.59;;;22.39;56.02
60099;BME280;45976;49.400;8.682;2022-07-26T04:08:19;100146.78;;;22.45;55.74
60099;BME280;45976;49.400;8.682;2022-07-26T04:09:19;100151.56;;;22.38;55.86
60099;BME280;45976;49.400;8.682;2022-07-26T04:10:21;100155.41;;;22.15;56.40
60099;BME280;45976;49.400;8.682;2022-07-26T04:11:22;100149.81;;;22.22;56.35
60099;BME280;45976;49.400;8.682;2022-07-26T04:12:23;100151.13;;;22.51;56.15
60099;BME280;45976;49.400;8.682;2022-07-26T04:13:23;100157.66;;;22.55;55.21
60099;BME280;45976;49.400;8.682;2022-07-26T04:14:25;100145.09;;;23.17;53.95
60099;BME280;45976;49.400;8.682;2022-07-26T04:15:25;100150.63;;;22.91;54.69
60099;BME280;45976;49.400;8.682;2022-07-26T04:16:26;100151.81;;;23.72;52.95
60099;BME280;45976;49.400;8.682;2022-07-26T04:17:27;100151.22;;;23.49;52.31
60099;BME280;45976;49.400;8.682;2022-07-26T04:18:28;100156.03;;;22.91;54.06
60099;BME280;45976;49.400;8.682;2022-07-26T04:19:29;100154.03;;;22.76;54.18
60099;BME280;45976;49.400;8.682;2022-07-26T04:20:29;100157.13;;;22.58;54.94
60099;BME280;45976;49.400;8.682;2022-07-26T04:21:30;100155.81;;;22.60;55.19
60099;BME280;45976;49.400;8.682;2022-07-26T04:22:31;100156.28;;;22.89;54.92
60099;BME280;45976;49.400;8.682;2022-07-26T04:23:32;100155.69;;;23.24;53.64
60099;BME280;45976;49.400;8.682;2022-07-26T04:24:32;100160.38;;;23.48;52.63
60099;BME280;45976;49.400;8.682;2022-07-26T04:25:33;100152.31;;;23.02;53.35
60099;BME280;45976;49.400;8.682;2022-07-26T04:26:34;100155.94;;;22.75;54.22
60099;BME280;45976;49.400;8.682;2022-07-26T04:27:36;100162.69;;;22.73;54.71
60099;BME280;45976;49.400;8.682;2022-07-26T04:28:37;100157.22;;;22.68;54.76
60099;BME280;45976;49.400;8.682;2022-07-26T04:29:38;100155.59;;;23.66;52.98
60099;BME280;45976;49.400;8.682;2022-07-26T04:30:39;100159.97;;;23.87;52.06
60099;BME280;45976;49.400;8.682;2022-07-26T04:31:40;100156.66;;;23.65;53.00
60099;BME280;45976;49.400;8.682;2022-07-26T04:32:41;100156.25;;;24.13;51.47
60099;BME280;45976;49.400;8.682;2022-07-26T04:33:43;100170.88;;;24.22;51.51
60099;BME280;45976;49.400;8.682;2022-07-26T04:34:44;100164.88;;;24.00;51.75
60099;BME280;45976;49.400;8.682;2022-07-26T04:35:44;100174.34;;;23.25;52.99
60099;BME280;45976;49.400;8.682;2022-07-26T04:36:45;100168.91;;;23.20;53.61
60099;BME280;45976;49.400;8.682;2022-07-26T04:37:46;100168.66;;;23.22;53.32
60099;BME280;45976;49.400;8.682;2022-07-26T04:38:47;100172.72;;;23.96;51.32
60099;BME280;45976;49.400;8.682;2022-07-26T04:39:47;100164.56;;;23.81;51.55
60099;BME280;45976;49.400;8.682;2022-07-26T04:40:48;100171.31;;;23.74;51.58
60099;BME280;45976;49.400;8.682;2022-07-26T04:41:50;100170.59;;;24.23;51.03
60099;BME280;45976;49.400;8.682;2022-07-26T04:42:51;100175.75;;;24.30;50.62
60099;BME280;45976;49.400;8.682;2022-07-26T04:43:51;100180.66;;;24.33;51.26
60099;BME280;45976;49.400;8.682;2022-07-26T04:44:52;100164.81;;;23.75;52.25
60099;BME280;45976;49.400;8.682;2022-07-26T04:45:52;100164.03;;;23.84;51.81
60099;BME280;45976;49.400;8.682;2022-07-26T04:46:53;100180.47;;;23.63;51.14
60099;BME280;45976;49.400;8.682;2022-07-26T04:47:54;100177.25;;;23.71;51.29
60099;BME280;45976;49.400;8.682;2022-07-26T04:48:54;100184.28;;;23.62;51.65
60099;BME280;45976;49.400;8.682;2022-07-26T04:49:55;100174.00;;;23.64;52.18
60099;BME280;45976;49.400;8.682;2022-07-26T04:50:56;100175.66;;;23.80;51.10
60099;BME280;45976;49.400;8.682;2022-07-26T04:51:56;100168.06;;;23.72;51.98
60099;BME280;45976;49.400;8.682;2022-07-26T04:52:58;100170.34;;;24.20;50.77
60099;BME280;45976;49.400;8.682;2022-07-26T04:53:59;100178.47;;;24.35;50.08
60099;BME280;45976;49.400;8.682;2022-07-26T04:54:59;100183.88;;;24.20;50.50
60099;BME280;45976;49.400;8.682;2022-07-26T04:56:00;100182.44;;;23.87;50.92
60099;BME280;45976;49.400;8.682;2022-07-26T04:57:00;100182.00;;;23.38;52.11
60099;BME280;45976;49.400;8.682;2022-07-26T04:58:01;100173.72;;;23.65;52.08
60099;BME280;45976;49.400;8.682;2022-07-26T04:59:02;100182.25;;;24.19;50.63
60099;BME280;45976;49.400;8.682;2022-07-26T05:00:06;100182.13;;;23.64;51.61
60099;BME280;45976;49.400;8.682;2022-07-26T05:01:08;100186.22;;;23.19;52.77
60099;BME280;45976;49.400;8.682;2022-07-26T05:02:09;100183.63;;;23.34;52.35
60099;BME280;45976;49.400;8.682;2022-07-26T05:03:10;100181.03;;;23.70;51.38
60099;BME280;45976;49.400;8.682;2022-07-26T05:04:10;100186.91;;;23.41;52.82
60099;BME280;45976;49.400;8.682;2022-07-26T05:05:11;100189.41;;;23.11;53.53
60099;BME280;45976;49.400;8.682;2022-07-26T05:06:11;100190.94;;;23.39;52.75
60099;BME280;45976;49.400;8.682;2022-07-26T05:07:12;100189.72;;;23.72;51.97
60099;BME280;45976;49.400;8.682;2022-07-26T05:08:13;100198.63;;;23.15;52.95
60099;BME280;45976;49.400;8.682;2022-07-26T05:09:15;100193.00;;;23.22;52.95
60099;BME280;45976;49.400;8.682;2022-07-26T05:10:16;100199.69;;;23.61;52.11
60099;BME280;45976;49.400;8.682;2022-07-26T05:11:18;100195.53;;;23.38;52.59
60099;BME280;45976;49.400;8.682;2022-07-26T05:12:19;100204.28;;;23.09;53.29
60099;BME280;45976;49.400;8.682;2022-07-26T05:13:19;100205.50;;;22.91;54.34
60099;BME280;45976;49.400;8.682;2022-07-26T05:14:20;100204.84;;;23.68;52.43
60099;BME280;45976;49.400;8.682;2022-07-26T05:15:20;100204.84;;;23.68;52.38
60099;BME280;45976;49.400;8.682;2022-07-26T05:16:21;100202.59;;;23.39;53.16
60099;BME280;45976;49.400;8.682;2022-07-26T05:17:22;100207.44;;;23.37;53.00
60099;BME280;45976;49.400;8.682;2022-07-26T05:18:22;100212.13;;;23.10;53.95
60099;BME280;45976;49.400;8.682;2022-07-26T05:19:23;100213.84;;;23.88;52.09
60099;BME280;45976;49.400;8.682;2022-07-26T05:20:23;100211.53;;;24.22;50.96